sensor_id;sensor_type;location;lat;lon;timestamp;pressure;altitude;pressure_sealevel;temperature;humidity
43681;BME280;29281;50.356;30.894;2022-07-23T00:00:50;100152.45;;;21.51;65.35
43681;BME280;29281;50.356;30.894;2022-07-23T00:01:54;100147.50;;;21.55;64.88
43681;BME280;29281;50.356;30.894;2022-07-23T00:02:59;100150.76;;;21.50;65.12
43681;BME280;29281;50.356;30.894;2022-07-23T00:04:03;100144.52;;;21.50;64.85
43681;BME280;29281;50.356;30.894;2022-07-23T00:05:08;100148.91;;;21.51;65.01
43681;BME280;29281;50.356;30.894;2022-07-23T00:06:14;100153.12;;;21.53;64.86
43681;BME280;29281;50.356;30.894;2022-07-23T00:07:19;100153.48;;;21.42;65.26
43681;BME280;29281;50.356;30.894;2022-07-23T00:08:23;100154.33;;;21.43;65.67
43681;BME280;29281;50.356;30.894;2022-07-23T00:09:27;100148.75;;;21.44;65.61
43681;BME280;29281;50.356;30.894;2022-07-23T00:10:34;100158.53;;;21.45;65.35
43681;BME280;29281;50.356;30.894;2022-07-23T00:11:37;100163.27;;;21.43;65.45
43681;BME280;29281;50.356;30.894;2022-07-23T00:12:41;100158.71;;;21.44;65.41
43681;BME280;29281;50.356;30.894;2022-07-23T00:13:48;100158.31;;;21.55;65.17
43681;BME280;29281;50.356;30.894;2022-07-23T00:14:52;100156.84;;;21.52;65.17
43681;BME280;29281;50.356;30.894;2022-07-23T00:15:55;100160.38;;;21.53;65.11
43681;BME280;29281;50.356;30.894;2022-07-23T00:16:59;100162.23;;;21.52;65.25
43681;BME280;29281;50.356;30.894;2022-07-23T00:18:06;100163.59;;;21.48;65.21
43681;BME280;29281;50.356;30.894;2022-07-23T00:19:10;100164.78;;;21.46;64.99
43681;BME280;29281;50.356;30.894;2022-07-23T00:20:16;100160.91;;;21.40;65.34
43681;BME280;29281;50.356;30.894;2022-07-23T00:21:20;100162.08;;;21.46;64.79
43681;BME280;29281;50.356;30.894;2022-07-23T00:22:29;100159.88;;;21.49;65.06
43681;BME280;29281;50.356;30.894;2022-07-23T00:23:33;100163.42;;;21.50;65.00
43681;BME280;29281;50.356;30.894;2022-07-23T00:24:38;100157.47;;;21.54;64.68
43681;BME280;29281;50.356;30.894;2022-07-23T00:25:42;100159.38;;;21.46;65.10
43681;BME280;29281;50.356;30.894;2022-07-23T00:26:46;100159.36;;;21.54;64.68
43681;BME280;29281;50.356;30.894;2022-07-23T00:27:50;100156.28;;;21.57;64.64
43681;BME280;29281;50.356;30.894;2022-07-23T00:28:53;100153.06;;;21.61;64.36
43681;BME280;29281;50.356;30.894;2022-07-23T00:29:56;100149.86;;;21.58;64.45
43681;BME280;29281;50.356;30.894;2022-07-23T00:31:03;100154.08;;;21.60;64.32
43681;BME280;29281;50.356;30.894;2022-07-23T00:32:06;100154.30;;;21.51;64.56
43681;BME280;29281;50.356;30.894;2022-07-23T00:33:09;100155.82;;;21.53;64.53
43681;BME280;29281;50.356;30.894;2022-07-23T00:34:13;100152.45;;;21.51;64.51
43681;BME280;29281;50.356;30.894;2022-07-23T00:35:21;100156.66;;;21.54;64.49
43681;BME280;29281;50.356;30.894;2022-07-23T00:36:27;100161.91;;;21.47;64.70
43681;BME280;29281;50.356;30.894;2022-07-23T00:37:32;100159.73;;;21.43;64.92
43681;BME280;29281;50.356;30.894;2022-07-23T00:38:40;100160.89;;;21.48;64.61
43681;BME280;29281;50.356;30.894;2022-07-23T00:39:45;100155.66;;;21.47;64.83
43681;BME280;29281;50.356;30.894;2022-07-23T00:40:47;100156.52;;;21.39;65.12
43681;BME280;29281;50.356;30.894;2022-07-23T00:41:52;100162.77;;;21.39;65.17
43681;BME280;29281;50.356;30.894;2022-07-23T00:42:58;100154.66;;;21.39;65.22
43681;BME280;29281;50.356;30.894;2022-07-23T00:44:23;100159.89;;;21.41;65.17
43681;BME280;29281;50.356;30.894;2022-07-23T00:45:32;100166.52;;;21.38;65.32
43681;BME280;29281;50.356;30.894;2022-07-23T00:46:36;100162.64;;;21.33;65.62
43681;BME280;29281;50.356;30.894;2022-07-23T00:47:41;100165.69;;;21.30;65.72
43681;BME280;29281;50.356;30.894;2022-07-23T00:48:46;100164.50;;;21.32;65.60
43681;BME280;29281;50.356;30.894;2022-07-23T00:49:50;100160.80;;;21.25;66.36
43681;BME280;29281;50.356;30.894;2022-07-23T00:50:54;100162.98;;;21.30;65.85
43681;BME280;29281;50.356;30.894;2022-07-23T00:52:01;100159.11;;;21.24;66.06
43681;BME280;29281;50.356;30.894;2022-07-23T00:53:05;100164.52;;;21.16;66.45
43681;BME280;29281;50.356;30.894;2022-07-23T00:54:09;100162.50;;;21.10;66.61
43681;BME280;29281;50.356;30.894;2022-07-23T00:55:14;100165.70;;;21.14;66.56
43681;BME280;29281;50.356;30.894;2022-07-23T00:56:20;100161.86;;;21.08;66.69
43681;BME280;29281;50.356;30.894;2022-07-23T00:57:22;100166.23;;;21.01;67.32
43681;BME280;29281;50.356;30.894;2022-07-23T00:58:29;100159.66;;;21.03;67.15
43681;BME280;29281;50.356;30.894;2022-07-23T00:59:37;100166.23;;;21.01;67.32
43681;BME280;29281;50.356;30.894;2022-07-23T01:00:42;100170.97;;;20.99;67.42
43681;BME280;29281;50.356;30.894;2022-07-23T01:01:44;100159.32;;;20.98;67.40
43681;BME280;29281;50.356;30.894;2022-07-23T01:02:50;100167.77;;;20.95;67.43
43681;BME280;29281;50.356;30.894;2022-07-23T01:03:55;100167.93;;;20.94;67.90
43681;BME280;29281;50.356;30.894;2022-07-23T01:04:59;100172.31;;;20.95;67.77
43681;BME280;29281;50.356;30.894;2022-07-23T01:06:03;100170.16;;;20.90;68.11
43681;BME280;29281;50.356;30.894;2022-07-23T01:07:07;100167.08;;;20.93;67.95
43681;BME280;29281;50.356;30.894;2022-07-23T01:08:11;100172.14;;;20.96;67.77
43681;BME280;29281;50.356;30.894;2022-07-23T01:09:15;100170.62;;;20.94;68.06
43681;BME280;29281;50.356;30.894;2022-07-23T01:10:21;100170.45;;;20.95;67.77
43681;BME280;29281;50.356;30.894;2022-07-23T01:11:36;100172.01;;;20.90;67.87
43681;BME280;29281;50.356;30.894;2022-07-23T01:12:41;100176.23;;;20.92;68.08
43681;BME280;29281;50.356;30.894;2022-07-23T01:13:45;100169.14;;;20.91;68.15
43681;BME280;29281;50.356;30.894;2022-07-23T01:41:07;100179.45;;;20.71;69.67
43681;BME280;29281;50.356;30.894;2022-07-23T01:42:13;100178.95;;;20.76;69.57
43681;BME280;29281;50.356;30.894;2022-07-23T01:43:17;100181.48;;;20.78;69.66
43681;BME280;29281;50.356;30.894;2022-07-23T01:44:21;100182.13;;;20.80;69.80
43681;BME280;29281;50.356;30.894;2022-07-23T01:45:26;100183.83;;;20.73;70.29
43681;BME280;29281;50.356;30.894;2022-07-23T01:46:33;100185.69;;;20.72;70.07
43681;BME280;29281;50.356;30.894;2022-07-23T01:47:38;100184.00;;;20.71;70.18
43681;BME280;29281;50.356;30.894;2022-07-23T01:48:42;100179.09;;;20.66;70.44
43681;BME280;29281;50.356;30.894;2022-07-23T01:49:49;100183.50;;;20.76;70.02
43681;BME280;29281;50.356;30.894;2022-07-23T01:50:55;100179.94;;;20.67;70.25
43681;BME280;29281;50.356;30.894;2022-07-23T01:52:01;100179.61;;;20.70;70.56
43681;BME280;29281;50.356;30.894;2022-07-23T01:53:10;100179.45;;;20.71;70.57
43681;BME280;29281;50.356;30.894;2022-07-23T01:54:15;100186.34;;;20.82;70.14
43681;BME280;29281;50.356;30.894;2022-07-23T01:55:20;100188.03;;;20.83;70.43
43681;BME280;29281;50.356;30.894;2022-07-23T01:56:28;100183.98;;;20.87;69.93
43681;BME280;29281;50.356;30.894;2022-07-23T01:58:53;100190.88;;;20.98;69.91
43681;BME280;29281;50.356;30.894;2022-07-23T01:59:55;100193.60;;;20.90;69.64
43681;BME280;29281;50.356;30.894;2022-07-23T02:00:59;100200.34;;;20.86;69.62
43681;BME280;29281;50.356;30.894;2022-07-23T02:02:04;100193.26;;;20.85;69.79
43681;BME280;29281;50.356;30.894;2022-07-23T02:03:08;100203.22;;;20.84;69.50
43681;BME280;29281;50.356;30.894;2022-07-23T02:04:13;100198.99;;;20.82;69.42
43681;BME280;29281;50.356;30.894;2022-07-23T02:05:18;100204.91;;;20.69;69.94
43681;BME280;29281;50.356;30.894;2022-07-23T02:06:23;100202.05;;;20.70;69.77
43681;BME280;29281;50.356;30.894;2022-07-23T02:07:27;100196.13;;;20.67;69.55
43681;BME280;29281;50.356;30.894;2022-07-23T02:08:34;100203.37;;;20.50;69.78
43681;BME280;29281;50.356;30.894;2022-07-23T02:09:38;100214.13;;;20.26;70.42
43681;BME280;29281;50.356;30.894;2022-07-23T02:10:42;100208.05;;;20.16;70.90
43681;BME280;29281;50.356;30.894;2022-07-23T02:11:48;100206.16;;;20.08;71.28
43681;BME280;29281;50.356;30.894;2022-07-23T02:12:54;100205.52;;;20.14;70.93
43681;BME280;29281;50.356;30.894;2022-07-23T02:13:57;100211.23;;;20.11;71.03
43681;BME280;29281;50.356;30.894;2022-07-23T02:15:00;100218.44;;;20.02;71.36
43681;BME280;29281;50.356;30.894;2022-07-23T02:16:04;100208.48;;;19.95;71.60
43681;BME280;29281;50.356;30.894;2022-07-23T02:17:07;100212.45;;;19.75;72.56
43681;BME280;29281;50.356;30.894;2022-07-23T02:18:10;100212.44;;;19.66;73.20
43681;BME280;29281;50.356;30.894;2022-07-23T02:19:15;100205.52;;;19.64;73.32
43681;BME280;29281;50.356;30.894;2022-07-23T02:20:23;100209.23;;;19.71;73.12
43681;BME280;29281;50.356;30.894;2022-07-23T02:21:28;100207.06;;;19.75;72.67
43681;BME280;29281;50.356;30.894;2022-07-23T02:22:34;100203.03;;;19.71;72.73
43681;BME280;29281;50.356;30.894;2022-07-23T02:23:38;100203.19;;;19.69;73.01
43681;BME280;29281;50.356;30.894;2022-07-23T02:24:44;100208.73;;;19.68;73.13
43681;BME280;29281;50.356;30.894;2022-07-23T02:25:48;100210.91;;;19.64;73.32
43681;BME280;29281;50.356;30.894;2022-07-23T02:26:52;100213.55;;;19.56;73.81
43681;BME280;29281;50.356;30.894;2022-07-23T02:27:57;100210.53;;;19.59;73.92
43681;BME280;29281;50.356;30.894;2022-07-23T02:29:01;100211.27;;;19.69;73.43
43681;BME280;29281;50.356;30.894;2022-07-23T02:30:06;100208.58;;;19.69;73.81
43681;BME280;29281;50.356;30.894;2022-07-23T02:31:13;100211.91;;;19.63;73.93
43681;BME280;29281;50.356;30.894;2022-07-23T02:32:22;100207.52;;;19.62;74.31
43681;BME280;29281;50.356;30.894;2022-07-23T02:33:26;100203.84;;;19.71;74.10
43681;BME280;29281;50.356;30.894;2022-07-23T02:34:29;100202.36;;;19.77;73.67
43681;BME280;29281;50.356;30.894;2022-07-23T02:35:34;100217.36;;;19.79;73.64
43681;BME280;29281;50.356;30.894;2022-07-23T02:36:39;100216.67;;;19.77;73.63
43681;BME280;29281;50.356;30.894;2022-07-23T02:37:44;100214.51;;;19.81;73.51
43681;BME280;29281;50.356;30.894;2022-07-23T02:38:48;100212.83;;;19.88;73.30
43681;BME280;29281;50.356;30.894;2022-07-23T02:39:53;100216.53;;;19.87;73.39
43681;BME280;29281;50.356;30.894;2022-07-23T02:40:58;100211.02;;;19.96;73.00
43681;BME280;29281;50.356;30.894;2022-07-23T02:42:04;100213.89;;;20.03;72.58
43681;BME280;29281;50.356;30.894;2022-07-23T02:43:09;100214.57;;;20.05;72.52
43681;BME280;29281;50.356;30.894;2022-07-23T02:44:13;100212.56;;;20.07;72.45
43681;BME280;29281;50.356;30.894;2022-07-23T02:45:18;100215.41;;;20.06;72.52
43681;BME280;29281;50.356;30.894;2022-07-23T02:46:26;100219.48;;;20.10;72.33
43681;BME280;29281;50.356;30.894;2022-07-23T02:47:32;100216.78;;;20.10;72.39
43681;BME280;29281;50.356;30.894;2022-07-23T02:48:35;100219.16;;;20.13;72.49
43681;BME280;29281;50.356;30.894;2022-07-23T02:49:39;100214.45;;;20.15;72.24
43681;BME280;29281;50.356;30.894;2022-07-23T02:50:46;100216.78;;;20.18;72.25
43681;BME280;29281;50.356;30.894;2022-07-23T02:51:51;100218.31;;;20.12;72.52
43681;BME280;29281;50.356;30.894;2022-07-23T02:52:54;100212.92;;;20.20;72.08
43681;BME280;29281;50.356;30.894;2022-07-23T02:53:59;100212.92;;;20.20;72.26
43681;BME280;29281;50.356;30.894;2022-07-23T02:55:07;100215.65;;;20.28;71.97
43681;BME280;29281;50.356;30.894;2022-07-23T02:56:13;100211.78;;;20.31;71.87
43681;BME280;29281;50.356;30.894;2022-07-23T02:57:18;100214.34;;;20.41;71.46
43681;BME280;29281;50.356;30.894;2022-07-23T02:58:22;100214.83;;;20.36;71.71
43681;BME280;29281;50.356;30.894;2022-07-23T02:59:26;100211.31;;;20.44;71.40
43681;BME280;29281;50.356;30.894;2022-07-23T03:00:31;100218.72;;;20.50;71.55
43681;BME280;29281;50.356;30.894;2022-07-23T03:01:37;100216.87;;;20.50;71.59
43681;BME280;29281;50.356;30.894;2022-07-23T03:02:41;100213.67;;;20.55;71.73
43681;BME280;29281;50.356;30.894;2022-07-23T03:03:45;100214.03;;;20.60;71.32
43681;BME280;29281;50.356;30.894;2022-07-23T03:04:54;100220.59;;;20.65;71.54
43681;BME280;29281;50.356;30.894;2022-07-23T03:05:55;100217.20;;;20.80;70.81
43681;BME280;29281;50.356;30.894;2022-07-23T03:07:00;100213.66;;;21.03;69.83
43681;BME280;29281;50.356;30.894;2022-07-23T03:08:04;100216.96;;;21.46;68.40
43681;BME280;29281;50.356;30.894;2022-07-23T03:09:09;100218.38;;;21.73;67.20
43681;BME280;29281;50.356;30.894;2022-07-23T03:10:16;100220.22;;;21.81;66.58
43681;BME280;29281;50.356;30.894;2022-07-23T03:11:19;100221.91;;;21.82;66.43
43681;BME280;29281;50.356;30.894;2022-07-23T03:12:23;100225.74;;;21.87;66.45
43681;BME280;29281;50.356;30.894;2022-07-23T03:13:30;100232.05;;;21.80;66.38
43681;BME280;29281;50.356;30.894;2022-07-23T03:14:33;100223.98;;;22.10;65.59
43681;BME280;29281;50.356;30.894;2022-07-23T03:15:37;100228.80;;;22.46;64.02
43681;BME280;29281;50.356;30.894;2022-07-23T03:16:40;100232.07;;;22.41;63.69
43681;BME280;29281;50.356;30.894;2022-07-23T03:17:44;100233.14;;;22.01;65.23
43681;BME280;29281;50.356;30.894;2022-07-23T03:18:49;100232.96;;;22.03;65.41
43681;BME280;29281;50.356;30.894;2022-07-23T03:19:52;100226.73;;;21.94;65.88
43681;BME280;29281;50.356;30.894;2022-07-23T03:20:59;100230.48;;;21.85;66.06
43681;BME280;29281;50.356;30.894;2022-07-23T03:22:03;100228.73;;;21.61;67.11
43681;BME280;29281;50.356;30.894;2022-07-23T03:23:07;100228.73;;;21.61;67.11
43681;BME280;29281;50.356;30.894;2022-07-23T03:24:10;100234.18;;;21.53;67.47
43681;BME280;29281;50.356;30.894;2022-07-23T03:25:14;100243.52;;;21.34;68.40
43681;BME280;29281;50.356;30.894;2022-07-23T03:26:22;100227.94;;;21.45;68.26
43681;BME280;29281;50.356;30.894;2022-07-23T03:27:29;100233.00;;;21.48;68.15
43681;BME280;29281;50.356;30.894;2022-07-23T03:28:37;100238.41;;;21.39;68.63
43681;BME280;29281;50.356;30.894;2022-07-23T03:29:42;100242.12;;;21.47;68.49
43681;BME280;29281;50.356;30.894;2022-07-23T03:30:46;100243.00;;;21.31;69.04
43681;BME280;29281;50.356;30.894;2022-07-23T03:31:50;100240.77;;;21.43;68.71
43681;BME280;29281;50.356;30.894;2022-07-23T03:32:54;100240.59;;;21.52;68.47
43681;BME280;29281;50.356;30.894;2022-07-23T03:34:00;100237.56;;;21.47;68.63
43681;BME280;29281;50.356;30.894;2022-07-23T03:35:06;100231.14;;;21.48;68.53
43681;BME280;29281;50.356;30.894;2022-07-23T03:36:14;100227.27;;;21.43;69.03
43681;BME280;29281;50.356;30.894;2022-07-23T03:37:20;100222.87;;;21.50;68.61
43681;BME280;29281;50.356;30.894;2022-07-23T03:38:23;100231.27;;;21.55;68.39
43681;BME280;29281;50.356;30.894;2022-07-23T03:39:32;100227.05;;;21.60;68.31
43681;BME280;29281;50.356;30.894;2022-07-23T03:40:35;100229.08;;;21.58;68.46
43681;BME280;29281;50.356;30.894;2022-07-23T03:41:42;100224.67;;;21.65;68.40
43681;BME280;29281;50.356;30.894;2022-07-23T03:42:48;100229.06;;;21.66;68.16
43681;BME280;29281;50.356;30.894;2022-07-23T03:43:51;100222.27;;;21.70;68.17
43681;BME280;29281;50.356;30.894;2022-07-23T03:44:55;100232.73;;;21.73;68.13
43681;BME280;29281;50.356;30.894;2022-07-23T03:46:02;100227.66;;;21.79;68.23
43681;BME280;29281;50.356;30.894;2022-07-23T03:47:06;100226.64;;;21.80;68.04
43681;BME280;29281;50.356;30.894;2022-07-23T03:48:10;100225.28;;;21.84;67.99
43681;BME280;29281;50.356;30.894;2022-07-23T03:49:14;100230.28;;;21.95;67.83
43681;BME280;29281;50.356;30.894;2022-07-23T03:50:19;100234.84;;;21.94;67.82
43681;BME280;29281;50.356;30.894;2022-07-23T03:51:22;100229.61;;;21.93;68.08
43681;BME280;29281;50.356;30.894;2022-07-23T03:52:26;100232.98;;;21.95;67.75
43681;BME280;29281;50.356;30.894;2022-07-23T03:53:31;100230.11;;;21.96;67.91
43681;BME280;29281;50.356;30.894;2022-07-23T03:54:37;100225.55;;;21.97;68.23
43681;BME280;29281;50.356;30.894;2022-07-23T03:55:39;100228.59;;;21.94;67.97
43681;BME280;29281;50.356;30.894;2022-07-23T03:56:43;100226.39;;;21.97;68.09
43681;BME280;29281;50.356;30.894;2022-07-23T03:57:48;100233.45;;;22.06;68.07
43681;BME280;29281;50.356;30.894;2022-07-23T03:58:52;100234.13;;;22.08;67.93
43681;BME280;29281;50.356;30.894;2022-07-23T03:59:56;100231.77;;;22.05;68.03
43681;BME280;29281;50.356;30.894;2022-07-23T04:01:01;100235.81;;;22.09;67.80
43681;BME280;29281;50.356;30.894;2022-07-23T04:02:07;100240.41;;;22.01;67.86
43681;BME280;29281;50.356;30.894;2022-07-23T04:03:13;100230.17;;;22.19;67.58
43681;BME280;29281;50.356;30.894;2022-07-23T04:04:17;100231.68;;;22.22;67.32
43681;BME280;29281;50.356;30.894;2022-07-23T04:05:21;100234.70;;;22.27;67.12
43681;BME280;29281;50.356;30.894;2022-07-23T04:06:27;100234.81;;;22.33;67.00
43681;BME280;29281;50.356;30.894;2022-07-23T04:07:32;100229.05;;;22.36;66.96
43681;BME280;29281;50.356;30.894;2022-07-23T04:08:37;100225.28;;;22.45;66.69
43681;BME280;29281;50.356;30.894;2022-07-23T04:09:42;100225.92;;;22.48;66.65
43681;BME280;29281;50.356;30.894;2022-07-23T04:10:48;100228.70;;;22.39;66.57
43681;BME280;29281;50.356;30.894;2022-07-23T04:11:54;100227.50;;;22.42;67.09
43681;BME280;29281;50.356;30.894;2022-07-23T04:13:00;100232.00;;;22.50;66.64
43681;BME280;29281;50.356;30.894;2022-07-23T04:14:06;100231.29;;;22.56;66.20
43681;BME280;29281;50.356;30.894;2022-07-23T04:15:09;100232.97;;;22.57;66.41
43681;BME280;29281;50.356;30.894;2022-07-23T04:16:14;100230.98;;;22.73;65.64
43681;BME280;29281;50.356;30.894;2022-07-23T04:17:20;100228.44;;;22.95;64.74
43681;BME280;29281;50.356;30.894;2022-07-23T04:18:24;100231.58;;;23.06;64.36
43681;BME280;29281;50.356;30.894;2022-07-23T04:19:29;100226.22;;;22.98;64.87
43681;BME280;29281;50.356;30.894;2022-07-23T04:20:38;100230.13;;;22.96;64.96
43681;BME280;29281;50.356;30.894;2022-07-23T04:21:44;100232.30;;;23.00;65.16
43681;BME280;29281;50.356;30.894;2022-07-23T04:22:47;100234.48;;;22.82;65.56
43681;BME280;29281;50.356;30.894;2022-07-23T04:23:51;100237.59;;;22.71;66.33
43681;BME280;29281;50.356;30.894;2022-07-23T04:24:55;100243.68;;;22.73;66.23
43681;BME280;29281;50.356;30.894;2022-07-23T04:26:02;100244.29;;;22.60;67.01
43681;BME280;29281;50.356;30.894;2022-07-23T04:27:07;100239.59;;;22.77;66.35
43681;BME280;29281;50.356;30.894;2022-07-23T04:28:12;100240.87;;;22.89;66.52
43681;BME280;29281;50.356;30.894;2022-07-23T04:29:17;100239.76;;;22.98;65.68
43681;BME280;29281;50.356;30.894;2022-07-23T04:30:23;100241.47;;;23.52;63.89
43681;BME280;29281;50.356;30.894;2022-07-23T04:31:28;100237.59;;;24.62;60.22
43681;BME280;29281;50.356;30.894;2022-07-23T04:32:33;100231.41;;;26.27;54.99
43681;BME280;29281;50.356;30.894;2022-07-23T04:33:38;100244.61;;;27.95;49.99
43681;BME280;29281;50.356;30.894;2022-07-23T04:34:45;100243.84;;;29.46;46.20
43681;BME280;29281;50.356;30.894;2022-07-23T04:35:52;100257.34;;;30.92;42.32
43681;BME280;29281;50.356;30.894;2022-07-23T04:37:10;100264.97;;;32.18;39.71
43681;BME280;29281;50.356;30.894;2022-07-23T04:38:19;100275.80;;;33.10;37.94
43681;BME280;29281;50.356;30.894;2022-07-23T04:39:24;100291.20;;;33.61;36.42
43681;BME280;29281;50.356;30.894;2022-07-23T04:40:29;100295.09;;;34.42;35.26
43681;BME280;29281;50.356;30.894;2022-07-23T04:41:33;100297.64;;;34.98;33.94
43681;BME280;29281;50.356;30.894;2022-07-23T04:42:38;100296.28;;;35.32;33.40
43681;BME280;29281;50.356;30.894;2022-07-23T04:43:42;100301.17;;;35.25;33.12
43681;BME280;29281;50.356;30.894;2022-07-23T04:44:46;100302.92;;;35.04;33.41
43681;BME280;29281;50.356;30.894;2022-07-23T04:45:52;100304.72;;;35.52;32.85
43681;BME280;29281;50.356;30.894;2022-07-23T04:46:55;100303.58;;;35.16;32.84
43681;BME280;29281;50.356;30.894;2022-07-23T04:48:00;100306.65;;;35.52;32.73
43681;BME280;29281;50.356;30.894;2022-07-23T04:49:08;100306.88;;;35.82;31.98
43681;BME280;29281;50.356;30.894;2022-07-23T04:50:15;100309.02;;;35.75;32.14
43681;BME280;29281;50.356;30.894;2022-07-23T04:51:24;100302.56;;;36.07;31.92
43681;BME280;29281;50.356;30.894;2022-07-23T04:52:28;100311.89;;;36.53;31.13
43681;BME280;29281;50.356;30.894;2022-07-23T04:53:32;100313.03;;;36.62;30.91
43681;BME280;29281;50.356;30.894;2022-07-23T04:54:35;100317.19;;;36.70;30.91
43681;BME280;29281;50.356;30.894;2022-07-23T04:55:41;100311.73;;;37.15;30.15
43681;BME280;29281;50.356;30.894;2022-07-23T04:56:45;100320.28;;;36.73;30.35
43681;BME280;29281;50.356;30.894;2022-07-23T04:57:49;100320.03;;;36.90;30.32
43681;BME280;29281;50.356;30.894;2022-07-23T04:58:55;100321.68;;;36.86;29.81
43681;BME280;29281;50.356;30.894;2022-07-23T04:59:58;100325.31;;;37.07;30.11
43681;BME280;29281;50.356;30.894;2022-07-23T05:01:02;100328.64;;;37.09;29.73
43681;BME280;29281;50.356;30.894;2022-07-23T05:02:07;100327.55;;;37.30;29.26
43681;BME280;29281;50.356;30.894;2022-07-23T05:03:13;100330.58;;;37.08;29.53
43681;BME280;29281;50.356;30.894;2022-07-23T05:04:19;100317.28;;;36.22;30.81
43681;BME280;29281;50.356;30.894;2022-07-23T05:05:23;100324.38;;;36.60;30.53
43681;BME280;29281;50.356;30.894;2022-07-23T05:06:29;100340.02;;;37.58;29.28
43681;BME280;29281;50.356;30.894;2022-07-23T05:07:33;100338.37;;;37.67;28.74
43681;BME280;29281;50.356;30.894;2022-07-23T05:08:35;100331.13;;;37.81;28.75
43681;BME280;29281;50.356;30.894;2022-07-23T05:09:40;100328.03;;;38.03;28.56
43681;BME280;29281;50.356;30.894;2022-07-23T05:10:45;100343.55;;;38.04;28.23
43681;BME280;29281;50.356;30.894;2022-07-23T05:11:50;100332.47;;;37.99;28.40
43681;BME280;29281;50.356;30.894;2022-07-23T05:12:55;100342.94;;;38.22;28.01
43681;BME280;29281;50.356;30.894;2022-07-23T05:13:58;100336.53;;;38.86;27.29
43681;BME280;29281;50.356;30.894;2022-07-23T05:15:05;100337.59;;;39.34;26.81
43681;BME280;29281;50.356;30.894;2022-07-23T05:16:14;100345.42;;;39.61;26.25
43681;BME280;29281;50.356;30.894;2022-07-23T05:17:19;100344.30;;;39.28;26.30
43681;BME280;29281;50.356;30.894;2022-07-23T05:18:23;100339.41;;;39.15;26.41
43681;BME280;29281;50.356;30.894;2022-07-23T05:19:29;100344.79;;;39.01;26.86
43681;BME280;29281;50.356;30.894;2022-07-23T05:20:32;100342.98;;;39.21;26.62
43681;BME280;29281;50.356;30.894;2022-07-23T05:21:37;100337.23;;;39.46;26.46
43681;BME280;29281;50.356;30.894;2022-07-23T05:22:41;100344.80;;;39.35;25.98
43681;BME280;29281;50.356;30.894;2022-07-23T05:23:48;100340.14;;;38.87;26.32
43681;BME280;29281;50.356;30.894;2022-07-23T05:24:51;100343.63;;;38.63;26.62
43681;BME280;29281;50.356;30.894;2022-07-23T05:25:54;100336.06;;;38.74;26.71
43681;BME280;29281;50.356;30.894;2022-07-23T05:27:03;100345.10;;;38.95;26.72
43681;BME280;29281;50.356;30.894;2022-07-23T05:28:07;100347.07;;;39.28;26.05
43681;BME280;29281;50.356;30.894;2022-07-23T05:29:11;100346.59;;;39.21;25.87
43681;BME280;29281;50.356;30.894;2022-07-23T05:30:15;100347.91;;;39.63;25.70
43681;BME280;29281;50.356;30.894;2022-07-23T05:31:18;100345.95;;;39.29;26.24
43681;BME280;29281;50.356;30.894;2022-07-23T05:32:22;100346.78;;;39.30;25.97
43681;BME280;29281;50.356;30.894;2022-07-23T05:33:27;100347.33;;;39.32;25.93
43681;BME280;29281;50.356;30.894;2022-07-23T05:34:32;100351.41;;;39.45;25.90
43681;BME280;29281;50.356;30.894;2022-07-23T05:35:35;100348.16;;;38.93;26.57
43681;BME280;29281;50.356;30.894;2022-07-23T05:36:41;100345.70;;;38.87;26.58
43681;BME280;29281;50.356;30.894;2022-07-23T05:37:45;100349.47;;;38.62;26.63
43681;BME280;29281;50.356;30.894;2022-07-23T05:38:51;100347.45;;;39.17;26.18
43681;BME280;29281;50.356;30.894;2022-07-23T05:39:55;100355.92;;;39.35;25.54
43681;BME280;29281;50.356;30.894;2022-07-23T05:41:02;100353.72;;;39.66;25.55
43681;BME280;29281;50.356;30.894;2022-07-23T05:42:07;100345.49;;;39.56;25.84
43681;BME280;29281;50.356;30.894;2022-07-23T05:43:16;100351.35;;;40.07;25.41
43681;BME280;29281;50.356;30.894;2022-07-23T05:44:20;100356.84;;;40.60;24.66
43681;BME280;29281;50.356;30.894;2022-07-23T05:45:24;100356.84;;;40.60;24.66
43681;BME280;29281;50.356;30.894;2022-07-23T05:46:27;100354.86;;;40.42;24.59
43681;BME280;29281;50.356;30.894;2022-07-23T05:47:47;100350.06;;;40.48;24.69
43681;BME280;29281;50.356;30.894;2022-07-23T05:48:54;100356.13;;;40.73;24.29
43681;BME280;29281;50.356;30.894;2022-07-23T05:50:04;100351.69;;;40.30;24.85
43681;BME280;29281;50.356;30.894;2022-07-23T05:51:21;100362.44;;;40.36;24.54
43681;BME280;29281;50.356;30.894;2022-07-23T05:52:25;100354.24;;;40.21;24.59
43681;BME280;29281;50.356;30.894;2022-07-23T05:53:37;100358.95;;;40.02;24.80
43681;BME280;29281;50.356;30.894;2022-07-23T05:54:43;100353.72;;;39.32;25.61
43681;BME280;29281;50.356;30.894;2022-07-23T05:55:47;100346.08;;;39.14;25.35
43681;BME280;29281;50.356;30.894;2022-07-23T05:56:51;100352.75;;;39.52;24.98
43681;BME280;29281;50.356;30.894;2022-07-23T05:57:58;100351.25;;;40.18;24.38
43681;BME280;29281;50.356;30.894;2022-07-23T05:59:12;100360.59;;;40.27;24.13
43681;BME280;29281;50.356;30.894;2022-07-23T06:00:23;100350.85;;;40.29;24.29
43681;BME280;29281;50.356;30.894;2022-07-23T06:01:27;100354.50;;;40.49;24.08
43681;BME280;29281;50.356;30.894;2022-07-23T06:02:35;100353.88;;;40.52;24.18
43681;BME280;29281;50.356;30.894;2022-07-23T06:03:38;100355.80;;;40.08;24.31
43681;BME280;29281;50.356;30.894;2022-07-23T06:04:42;100352.83;;;40.24;24.19